Baltimore, MD (21206)

1:34 AM EDT on October 25, 2014 (GMT -0400)
Parkville/Harris | Change Station
CLOSE
Current Station
Personal Weather Station
Location: Baltimore, MD
Elevation: 351 ft
Nearby Weather Stations

Elev 351 ft 39.37 °N, 76.54 °W | Updated 8 minutes ago

Clear
Clear
52.9 °F
Feels Like 52.9 °F
N
3.7
Wind Variable Wind from NW

Today
High -- | Low -- °F
--% Chance of Precip.
Yesterday
High -- | Low -- °F
Precip. -- in
7:26 AM 6:13 PM
New Moon, 2% visible
Pressure 29.94 in
Visibility 10.0 miles
Clouds Few 25000 ft
Dew Point 42 °F
Humidity 66%
Rainfall 0.00 in
Snow Depth Not available.
UV 0 out of 12
Pollen 1.90 out of 12
Air Quality Not available.
Flu Activity Sporadic
METAR KBWI 250454Z 30005KT 10SM FEW250 10/03 A2994 RMK AO2 SLP137 T01000033 402000089

More Conditions Fewer Conditions

Pressure 29.94 in
Visibility 10.0 miles
Clouds Few 25000 ft
Dew Point 42 °F
Humidity 66%
Rainfall 0.00 in
Snow Depth Not available.
UV 0 out of 12
Pollen 1.90 out of 12
Air Quality Not available.
Flu Activity Sporadic
METAR KBWI 250454Z 30005KT 10SM FEW250 10/03 A2994 RMK AO2 SLP137 T01000033 402000089

More Conditions Fewer Conditions

10-Day Weather Forecast

Almanac

Astronomy

Oct. 25, 2014 Rise Set
Actual Time 7:26 AM EDT 6:13 PM EDT
Civil Twilight 6:58 AM EDT 6:40 PM EDT
Nautical Twilight 6:27 AM EDT 7:12 PM EDT
Astronomical Twilight 5:56 AM EDT 7:43 PM EDT
Moon 9:02 AM EDT 7:35 PM EDT
Length of Visible Light 11h 41m
Length of Day
10h 47m
Tomorrow will be 2m 21s shorter.
New Moon, 2% of the Moon is Illuminated
Today
New Moon
Oct 30
First Quarter
Nov 6
Full
Nov 14
Last Quarter
Nov 22
New

Today's Extremes

State Highs State Lows

Community

WunderPhotos

Upload Photos

1,764,785 photos uploaded!

Nearby

Snow Depth

Station Depth Elevation
No new snow has been reported.

Earthquake Activity

City Distance Mag. Time & Date
No recent earthquake activity has been reported nearby.
Minimum magnitude displayed is 2.5.

Coastal Water Temperatures

Place Temperature
Baltimore, MD 64.0 °F
Tolchester Beach, MD 59.0 °F
Washington, DC 60.1 °F

Nearby Weather Stations